createdAt,value
2022-08-04T00:01:52.187Z,26.30
2022-08-04T00:04:58.727Z,26.30
2022-08-04T00:07:58.531Z,26.20
2022-08-04T00:10:50.213Z,26.20
2022-08-04T00:13:58.106Z,26.10
2022-08-04T00:16:50.272Z,26.00
2022-08-04T00:19:41.882Z,26.00
2022-08-04T00:22:31.204Z,26.00
2022-08-04T00:30:55.121Z,25.90
2022-08-04T00:36:30.685Z,25.80
2022-08-04T00:40:32.217Z,25.90
2022-08-04T00:43:58.466Z,25.80
2022-08-04T00:47:15.333Z,25.90
2022-08-04T00:50:09.841Z,25.80
2022-08-04T00:53:05.460Z,25.80
2022-08-04T00:56:07.742Z,25.70
2022-08-04T00:59:07.767Z,25.60
2022-08-04T01:02:01.895Z,25.40
2022-08-04T01:04:58.653Z,25.20
2022-08-04T01:07:57.536Z,24.80
2022-08-04T01:10:58.163Z,25.00
2022-08-04T01:14:02.089Z,25.00
2022-08-04T01:16:52.853Z,25.10
2022-08-04T01:20:02.137Z,25.00
2022-08-04T01:23:32.437Z,25.10
2022-08-04T01:26:57.508Z,25.10
2022-08-04T01:29:51.584Z,25.10
2022-08-04T01:32:49.609Z,25.00
2022-08-04T01:35:48.131Z,24.90
2022-08-04T01:38:43.733Z,24.80
2022-08-04T01:41:32.524Z,24.80
2022-08-04T01:44:20.968Z,24.70
2022-08-04T01:47:10.226Z,24.80
2022-08-04T01:50:06.904Z,24.70
2022-08-04T01:52:55.103Z,24.90
2022-08-04T02:01:30.073Z,25.00
2022-08-04T02:04:23.446Z,24.90
2022-08-04T02:07:29.032Z,24.70
2022-08-04T02:10:24.904Z,24.70
2022-08-04T02:13:21.200Z,24.70
2022-08-04T02:16:17.440Z,24.80
2022-08-04T02:19:14.559Z,24.60
2022-08-04T02:22:09.893Z,24.10
2022-08-04T02:25:04.510Z,23.90
2022-08-04T02:27:59.906Z,23.60
2022-08-04T02:30:56.586Z,23.50
2022-08-04T02:33:44.632Z,23.60
2022-08-04T02:36:35.740Z,23.70
2022-08-04T02:39:24.494Z,23.80
2022-08-04T02:42:14.061Z,23.90
2022-08-04T02:45:02.215Z,24.10
2022-08-04T02:48:28.934Z,24.20
2022-08-04T02:51:00.239Z,24.40
2022-08-04T02:53:55.988Z,24.40
2022-08-04T02:56:46.896Z,24.40
2022-08-04T02:59:55.735Z,24.40
2022-08-04T03:02:56.846Z,24.20
2022-08-04T03:06:01.614Z,24.20
2022-08-04T03:09:18.320Z,24.20
2022-08-04T03:12:38.632Z,24.80
2022-08-04T03:15:51.237Z,23.80
2022-08-04T03:19:27.727Z,23.80
2022-08-04T03:23:12.057Z,23.60
2022-08-04T03:26:32.400Z,23.60
2022-08-04T03:29:36.752Z,23.70
2022-08-04T03:32:58.716Z,23.80
2022-08-04T03:36:14.553Z,23.90
2022-08-04T03:39:36.899Z,23.90
2022-08-04T03:42:52.417Z,23.90
2022-08-04T03:46:17.992Z,23.80
2022-08-04T03:50:01.939Z,23.90
2022-08-04T03:53:19.346Z,23.80
2022-08-04T03:56:50.113Z,23.80
2022-08-04T04:00:01.056Z,23.60
2022-08-04T04:03:28.677Z,23.80
2022-08-04T04:06:48.840Z,23.80
2022-08-04T04:10:08.726Z,23.70
2022-08-04T04:13:32.610Z,23.60
2022-08-04T04:16:40.794Z,23.60
2022-08-04T04:19:59.614Z,23.60
2022-08-04T04:23:01.144Z,23.60
2022-08-04T04:26:03.004Z,23.60
2022-08-04T04:29:12.328Z,23.40
2022-08-04T04:32:14.605Z,23.30
2022-08-04T04:35:14.278Z,23.20
2022-08-04T04:38:36.305Z,23.00
2022-08-04T04:41:44.608Z,23.10
2022-08-04T04:45:06.791Z,23.20
2022-08-04T04:48:08.991Z,23.30
2022-08-04T04:51:08.478Z,23.40
2022-08-04T04:54:00.045Z,23.00
2022-08-04T04:56:51.775Z,23.10
2022-08-04T04:59:45.147Z,22.90
2022-08-04T05:03:00.429Z,23.20
2022-08-04T05:06:09.357Z,23.30
2022-08-04T05:09:09.055Z,23.50
2022-08-04T05:13:05.235Z,23.50
2022-08-04T05:15:43.798Z,23.60
2022-08-04T05:18:33.845Z,23.60
2022-08-04T05:21:33.553Z,23.50
2022-08-04T05:24:22.330Z,23.70
2022-08-04T05:27:15.550Z,23.80
2022-08-04T05:30:04.899Z,23.80
2022-08-04T05:32:59.161Z,23.80
2022-08-04T05:36:20.362Z,23.80
2022-08-04T05:39:00.879Z,23.80
2022-08-04T05:41:55.811Z,23.70
2022-08-04T05:47:39.030Z,23.80
2022-08-04T05:53:16.659Z,23.40
2022-08-04T05:56:06.384Z,23.30
2022-08-04T05:58:54.118Z,23.20
2022-08-04T06:01:56.760Z,23.20
2022-08-04T06:04:46.500Z,23.40
2022-08-04T06:07:33.547Z,23.50
2022-08-04T06:13:49.157Z,23.70
2022-08-04T06:16:36.813Z,23.80
2022-08-04T06:19:59.847Z,23.90
2022-08-04T06:25:25.765Z,24.10
2022-08-04T06:28:14.341Z,24.30
2022-08-04T06:32:27.023Z,24.30
2022-08-04T06:34:15.414Z,24.40
2022-08-04T06:39:50.447Z,24.50
2022-08-04T06:42:39.331Z,24.60
2022-08-04T06:45:26.940Z,24.60
2022-08-04T06:48:18.996Z,24.70
2022-08-04T06:59:51.315Z,25.00
2022-08-04T07:02:43.619Z,25.00
2022-08-04T07:05:32.980Z,25.10
2022-08-04T07:08:21.022Z,25.30
2022-08-04T07:16:43.347Z,25.40
2022-08-04T07:22:25.637Z,25.70
2022-08-04T07:39:27.449Z,26.40
2022-08-04T07:42:18.983Z,26.50
2022-08-04T07:45:07.276Z,26.70
2022-08-04T07:50:53.877Z,26.90
2022-08-04T07:53:54.465Z,27.10
2022-08-04T07:56:45.300Z,27.20
2022-08-04T08:02:26.166Z,27.40
2022-08-04T08:05:16.727Z,27.60
2022-08-04T08:13:39.923Z,28.30
2022-08-04T08:16:28.479Z,28.50
2022-08-04T08:22:03.275Z,29.20
2022-08-04T08:27:38.942Z,30.10
2022-08-04T08:30:44.011Z,30.80
2022-08-04T08:36:24.836Z,32.40
2022-08-04T08:39:16.084Z,32.70
2022-08-04T08:42:34.792Z,33.40
2022-08-04T08:45:57.391Z,33.90
2022-08-04T08:49:07.495Z,34.30
2022-08-04T08:53:01.351Z,34.50
2022-08-04T08:55:38.100Z,34.70
2022-08-04T08:58:36.934Z,35.00
2022-08-04T09:01:41.985Z,35.70
2022-08-04T09:04:55.865Z,36.70
2022-08-04T09:08:03.210Z,37.40
2022-08-04T09:10:54.069Z,38.10
2022-08-04T09:13:46.772Z,38.50
2022-08-04T09:16:41.801Z,38.50
2022-08-04T09:19:38.142Z,39.10
2022-08-04T09:22:33.328Z,39.40
2022-08-04T09:25:25.949Z,38.70
2022-08-04T09:28:43.664Z,39.60
2022-08-04T09:31:49.019Z,40.10
2022-08-04T09:35:05.158Z,40.70
2022-08-04T09:38:06.646Z,41.10
2022-08-04T09:41:03.765Z,41.40
2022-08-04T09:44:49.309Z,40.10
2022-08-04T09:47:22.036Z,40.20
2022-08-04T09:50:22.197Z,40.00
2022-08-04T09:53:27.193Z,40.40
2022-08-04T09:56:24.347Z,41.30
2022-08-04T09:59:25.095Z,40.50
2022-08-04T10:02:16.631Z,40.40
2022-08-04T10:05:06.213Z,41.30
2022-08-04T10:08:15.390Z,41.00
2022-08-04T10:11:10.364Z,41.10
2022-08-04T10:14:07.034Z,41.90
2022-08-04T10:17:04.059Z,41.40
2022-08-04T10:20:00.434Z,40.70
2022-08-04T10:23:11.181Z,40.80
2022-08-04T10:26:11.499Z,41.20
2022-08-04T10:29:05.712Z,40.60
2022-08-04T10:32:00.170Z,41.40
2022-08-04T10:35:02.482Z,42.30
2022-08-04T10:38:01.425Z,42.50
2022-08-04T10:41:01.280Z,42.10
2022-08-04T10:44:00.213Z,42.70
2022-08-04T10:46:53.801Z,42.30
2022-08-04T10:49:46.353Z,42.00
2022-08-04T10:52:39.184Z,42.30
2022-08-04T10:56:06.194Z,41.70
2022-08-04T10:58:52.348Z,41.80
2022-08-04T11:02:01.915Z,41.80
2022-08-04T11:04:54.189Z,41.30
2022-08-04T11:07:43.760Z,41.50
2022-08-04T11:10:36.129Z,41.80
2022-08-04T11:13:30.060Z,41.90
2022-08-04T11:16:22.674Z,41.90
2022-08-04T11:19:20.558Z,41.60
2022-08-04T11:22:10.689Z,41.30
2022-08-04T11:25:09.411Z,41.40
2022-08-04T11:28:04.519Z,41.20
2022-08-04T11:30:56.464Z,41.20
2022-08-04T11:33:51.033Z,41.00
2022-08-04T11:36:53.383Z,40.80
2022-08-04T11:39:49.927Z,40.50
2022-08-04T11:42:40.016Z,40.30
2022-08-04T11:45:34.828Z,40.40
2022-08-04T11:48:30.513Z,40.60
2022-08-04T11:51:20.188Z,41.00
2022-08-04T11:54:07.272Z,41.30
2022-08-04T11:59:43.593Z,40.40
2022-08-04T12:03:02.597Z,40.20
2022-08-04T12:05:58.905Z,40.30
2022-08-04T12:09:01.204Z,40.60
2022-08-04T12:12:01.332Z,40.30
2022-08-04T12:14:55.842Z,39.80
2022-08-04T12:17:53.321Z,39.50
2022-08-04T12:23:36.412Z,38.40
2022-08-04T12:26:28.231Z,38.30
2022-08-04T12:29:18.681Z,38.10
2022-08-04T12:32:12.689Z,38.30
2022-08-04T12:35:08.294Z,39.00
2022-08-04T12:38:02.844Z,39.30
2022-08-04T12:40:51.811Z,39.50
2022-08-04T12:57:45.441Z,41.40
2022-08-04T13:03:31.913Z,42.10
2022-08-04T13:06:25.870Z,42.60
2022-08-04T13:09:20.134Z,42.60
2022-08-04T13:12:13.869Z,42.70
2022-08-04T13:15:10.135Z,43.00
2022-08-04T13:18:03.039Z,42.90
2022-08-04T13:20:50.017Z,42.80
2022-08-04T13:24:09.919Z,42.50
2022-08-04T13:26:54.968Z,42.60
2022-08-04T13:29:57.918Z,42.80
2022-08-04T13:32:48.349Z,43.20
2022-08-04T13:35:55.105Z,44.20
2022-08-04T13:38:49.830Z,43.50
2022-08-04T13:41:41.060Z,43.20
2022-08-04T13:44:31.818Z,42.60
2022-08-04T13:47:41.121Z,41.80
2022-08-04T13:50:30.594Z,40.80
2022-08-04T13:53:21.983Z,39.90
2022-08-04T13:56:15.356Z,39.20
2022-08-04T13:59:04.011Z,38.70
2022-08-04T14:02:01.489Z,38.60
2022-08-04T14:04:54.268Z,38.40
2022-08-04T14:07:46.390Z,38.10
2022-08-04T14:10:35.797Z,37.90
2022-08-04T14:13:41.886Z,37.80
2022-08-04T14:19:15.947Z,37.60
2022-08-04T14:24:57.527Z,37.60
2022-08-04T14:27:48.490Z,37.40
2022-08-04T14:30:37.357Z,37.20
2022-08-04T14:36:49.698Z,37.20
2022-08-04T14:40:08.440Z,37.20
2022-08-04T14:43:00.646Z,37.20
2022-08-04T14:45:54.119Z,37.20
2022-08-04T14:49:02.479Z,37.20
2022-08-04T14:51:55.167Z,37.10
2022-08-04T15:00:26.818Z,37.00
2022-08-04T15:03:14.062Z,37.00
2022-08-04T15:06:07.893Z,37.10
2022-08-04T15:09:00.745Z,37.20
2022-08-04T15:11:47.790Z,37.10
2022-08-04T15:17:29.797Z,36.90
2022-08-04T15:20:17.877Z,36.80
2022-08-04T15:26:01.091Z,36.90
2022-08-04T15:28:54.038Z,36.90
2022-08-04T15:32:05.380Z,36.80
2022-08-04T15:34:54.847Z,36.80
2022-08-04T15:37:50.664Z,36.80
2022-08-04T15:40:48.684Z,36.70
2022-08-04T15:43:55.451Z,36.70
2022-08-04T15:47:14.044Z,36.70
2022-08-04T15:50:08.549Z,36.50
2022-08-04T15:53:10.411Z,36.50
2022-08-04T15:58:51.447Z,36.70
2022-08-04T16:04:26.396Z,36.60
2022-08-04T16:07:14.489Z,36.70
2022-08-04T16:10:36.385Z,36.70
2022-08-04T16:13:24.562Z,36.70
2022-08-04T16:16:11.656Z,36.60
2022-08-04T16:19:05.912Z,36.50
2022-08-04T16:21:54.752Z,36.60
2022-08-04T16:24:43.518Z,36.50
2022-08-04T16:27:41.954Z,36.70
2022-08-04T16:30:29.191Z,36.70
2022-08-04T16:33:15.967Z,36.70
2022-08-04T16:36:08.002Z,36.60
2022-08-04T16:39:06.831Z,36.50
2022-08-04T16:41:55.700Z,36.50
2022-08-04T16:48:02.047Z,36.50
2022-08-04T16:50:51.593Z,36.40
2022-08-04T16:53:52.055Z,36.40
2022-08-04T16:59:29.819Z,36.20
2022-08-04T17:05:39.793Z,36.10
2022-08-04T17:08:31.559Z,36.00
2022-08-04T17:14:06.493Z,36.30
2022-08-04T17:16:57.729Z,36.30
2022-08-04T17:19:53.276Z,36.40
2022-08-04T17:25:51.924Z,36.30
2022-08-04T17:31:37.903Z,36.40
2022-08-04T17:34:26.591Z,36.40
2022-08-04T17:40:25.426Z,36.20
2022-08-04T17:44:01.247Z,36.00
2022-08-04T17:46:30.062Z,36.00
2022-08-04T17:49:24.773Z,35.90
2022-08-04T17:52:39.665Z,35.80
2022-08-04T17:55:39.124Z,35.80
2022-08-04T18:05:05.876Z,35.30
2022-08-04T18:08:38.683Z,35.20
2022-08-04T18:11:03.780Z,35.10
2022-08-04T18:13:57.198Z,35.00
2022-08-04T18:16:45.292Z,34.90
2022-08-04T18:22:36.657Z,34.70
2022-08-04T18:25:23.423Z,34.50
2022-08-04T18:40:30.316Z,33.90
2022-08-04T18:43:27.871Z,33.80
2022-08-04T18:57:58.767Z,33.20
2022-08-04T19:12:08.918Z,32.60
2022-08-04T19:15:08.752Z,32.40
2022-08-04T19:29:37.310Z,32.20
2022-08-04T19:32:26.456Z,31.90
2022-08-04T19:50:03.292Z,31.80
2022-08-04T19:55:36.833Z,31.50
2022-08-04T20:01:31.194Z,31.40
2022-08-04T20:04:21.857Z,31.20
2022-08-04T20:07:13.893Z,31.10
2022-08-04T20:21:55.982Z,31.00
2022-08-04T20:30:47.548Z,30.80
2022-08-04T20:39:12.495Z,30.80
2022-08-04T20:44:49.780Z,30.50
2022-08-04T20:47:36.943Z,30.50
2022-08-04T20:56:06.820Z,30.20
2022-08-04T21:01:40.789Z,30.20
2022-08-04T21:04:32.624Z,30.20
2022-08-04T21:10:07.602Z,30.20
2022-08-04T21:12:56.444Z,30.10
2022-08-04T21:15:58.975Z,30.10
2022-08-04T21:24:26.479Z,30.10
2022-08-04T21:27:14.071Z,30.10
2022-08-04T21:30:02.717Z,30.10
2022-08-04T21:35:39.888Z,29.90
2022-08-04T21:46:59.421Z,29.80
2022-08-04T21:56:05.146Z,29.70
2022-08-04T21:58:44.706Z,29.70
2022-08-04T22:01:50.249Z,29.80
2022-08-04T22:04:39.884Z,29.70
2022-08-04T22:13:22.583Z,29.70
2022-08-04T22:16:09.548Z,29.60
2022-08-04T22:18:58.277Z,29.60
2022-08-04T22:21:48.133Z,29.50
2022-08-04T22:27:38.425Z,29.10
2022-08-04T22:36:10.612Z,29.10
2022-08-04T22:39:06.856Z,29.20
2022-08-04T22:50:27.751Z,29.10
2022-08-04T22:56:10.511Z,28.80
2022-08-04T23:13:29.791Z,28.80
2022-08-04T23:27:40.314Z,28.70
2022-08-04T23:30:31.960Z,28.70
2022-08-04T23:36:10.111Z,28.60
2022-08-04T23:39:00.507Z,28.40
2022-08-04T23:48:16.525Z,28.20
2022-08-04T23:56:19.365Z,27.90
2022-08-04T23:59:23.162Z,28.10
